sensor_id;sensor_type;location;lat;lon;timestamp;temperature;humidity
1476;DHT22;730;48.870;12.542;2022-11-20T00:01:16;3.80;6.90
1476;DHT22;730;48.870;12.542;2022-11-20T00:03:43;3.90;6.80
1476;DHT22;730;48.870;12.542;2022-11-20T00:06:11;3.90;6.70
1476;DHT22;730;48.870;12.542;2022-11-20T00:08:38;3.90;6.50
1476;DHT22;730;48.870;12.542;2022-11-20T00:11:05;3.90;6.50
1476;DHT22;730;48.870;12.542;2022-11-20T00:13:33;3.90;6.50
1476;DHT22;730;48.870;12.542;2022-11-20T00:16:03;3.80;6.50
1476;DHT22;730;48.870;12.542;2022-11-20T00:18:30;3.80;6.60
1476;DHT22;730;48.870;12.542;2022-11-20T00:23:29;3.90;6.80
1476;DHT22;730;48.870;12.542;2022-11-20T00:25:56;3.90;6.70
1476;DHT22;730;48.870;12.542;2022-11-20T00:28:22;4.00;6.70
1476;DHT22;730;48.870;12.542;2022-11-20T00:30:48;3.90;6.60
1476;DHT22;730;48.870;12.542;2022-11-20T00:33:14;3.90;6.50
1476;DHT22;730;48.870;12.542;2022-11-20T00:35:40;3.90;6.40
1476;DHT22;730;48.870;12.542;2022-11-20T00:38:06;3.90;6.30
1476;DHT22;730;48.870;12.542;2022-11-20T00:40:32;4.00;6.50
1476;DHT22;730;48.870;12.542;2022-11-20T00:42:58;4.00;6.60
1476;DHT22;730;48.870;12.542;2022-11-20T00:45:24;4.00;6.60
1476;DHT22;730;48.870;12.542;2022-11-20T00:47:50;4.00;6.60
1476;DHT22;730;48.870;12.542;2022-11-20T00:50:16;4.00;6.70
1476;DHT22;730;48.870;12.542;2022-11-20T00:52:42;4.00;6.60
1476;DHT22;730;48.870;12.542;2022-11-20T00:55:08;4.00;6.60
1476;DHT22;730;48.870;12.542;2022-11-20T00:57:34;4.00;7.20
1476;DHT22;730;48.870;12.542;2022-11-20T01:00:00;4.00;6.50
1476;DHT22;730;48.870;12.542;2022-11-20T01:02:27;4.00;6.40
1476;DHT22;730;48.870;12.542;2022-11-20T01:04:53;4.00;6.30
1476;DHT22;730;48.870;12.542;2022-11-20T01:07:19;4.00;6.40
1476;DHT22;730;48.870;12.542;2022-11-20T01:09:45;4.00;6.30
1476;DHT22;730;48.870;12.542;2022-11-20T01:12:11;4.00;6.30
1476;DHT22;730;48.870;12.542;2022-11-20T01:14:37;4.00;6.30
1476;DHT22;730;48.870;12.542;2022-11-20T01:17:03;4.00;6.30
1476;DHT22;730;48.870;12.542;2022-11-20T01:19:30;4.00;6.50
1476;DHT22;730;48.870;12.542;2022-11-20T01:21:57;4.10;6.60
1476;DHT22;730;48.870;12.542;2022-11-20T01:24:25;4.00;6.40
1476;DHT22;730;48.870;12.542;2022-11-20T01:26:51;4.10;6.50
1476;DHT22;730;48.870;12.542;2022-11-20T01:29:22;4.10;6.60
1476;DHT22;730;48.870;12.542;2022-11-20T01:31:49;4.10;6.60
1476;DHT22;730;48.870;12.542;2022-11-20T01:34:17;4.10;6.60
1476;DHT22;730;48.870;12.542;2022-11-20T01:36:45;4.10;6.70
1476;DHT22;730;48.870;12.542;2022-11-20T01:39:15;4.10;6.60
1476;DHT22;730;48.870;12.542;2022-11-20T01:41:42;4.10;6.60
1476;DHT22;730;48.870;12.542;2022-11-20T01:44:51;4.10;6.70
1476;DHT22;730;48.870;12.542;2022-11-20T01:47:25;4.10;6.50
1476;DHT22;730;48.870;12.542;2022-11-20T01:49:58;4.10;6.50
1476;DHT22;730;48.870;12.542;2022-11-20T01:52:34;4.20;6.40
1476;DHT22;730;48.870;12.542;2022-11-20T01:55:05;4.10;6.10
1476;DHT22;730;48.870;12.542;2022-11-20T01:57:34;4.10;6.40
1476;DHT22;730;48.870;12.542;2022-11-20T02:00:10;4.10;6.30
1476;DHT22;730;48.870;12.542;2022-11-20T02:02:39;4.10;6.40
1476;DHT22;730;48.870;12.542;2022-11-20T02:05:31;4.10;6.30
1476;DHT22;730;48.870;12.542;2022-11-20T02:08:00;4.10;6.10
1476;DHT22;730;48.870;12.542;2022-11-20T02:10:27;4.10;6.20
1476;DHT22;730;48.870;12.542;2022-11-20T02:12:54;4.00;6.30
1476;DHT22;730;48.870;12.542;2022-11-20T02:15:39;4.00;6.40
1476;DHT22;730;48.870;12.542;2022-11-20T02:18:05;4.10;6.30
1476;DHT22;730;48.870;12.542;2022-11-20T02:20:32;4.00;6.20
1476;DHT22;730;48.870;12.542;2022-11-20T02:25:52;4.00;6.10
1476;DHT22;730;48.870;12.542;2022-11-20T02:28:22;4.00;6.40
1476;DHT22;730;48.870;12.542;2022-11-20T02:30:48;3.90;6.20
1476;DHT22;730;48.870;12.542;2022-11-20T02:33:14;3.90;6.50
1476;DHT22;730;48.870;12.542;2022-11-20T02:35:46;3.90;6.80
1476;DHT22;730;48.870;12.542;2022-11-20T02:38:13;3.90;6.90
1476;DHT22;730;48.870;12.542;2022-11-20T02:40:40;3.90;6.80
1476;DHT22;730;48.870;12.542;2022-11-20T02:43:06;3.90;6.90
1476;DHT22;730;48.870;12.542;2022-11-20T02:45:32;3.90;6.70
1476;DHT22;730;48.870;12.542;2022-11-20T02:47:59;3.90;6.90
1476;DHT22;730;48.870;12.542;2022-11-20T02:50:25;3.90;6.90
1476;DHT22;730;48.870;12.542;2022-11-20T02:52:55;3.90;6.50
1476;DHT22;730;48.870;12.542;2022-11-20T02:55:21;3.90;6.60
1476;DHT22;730;48.870;12.542;2022-11-20T02:57:47;3.90;6.70
1476;DHT22;730;48.870;12.542;2022-11-20T03:00:13;3.90;6.70
1476;DHT22;730;48.870;12.542;2022-11-20T03:02:39;3.90;6.70
1476;DHT22;730;48.870;12.542;2022-11-20T03:05:05;3.90;6.90
1476;DHT22;730;48.870;12.542;2022-11-20T03:07:31;3.90;6.70
1476;DHT22;730;48.870;12.542;2022-11-20T03:09:57;3.90;6.70
1476;DHT22;730;48.870;12.542;2022-11-20T03:12:23;3.90;7.00
1476;DHT22;730;48.870;12.542;2022-11-20T03:14:49;3.90;6.90
1476;DHT22;730;48.870;12.542;2022-11-20T03:17:16;3.90;6.90
1476;DHT22;730;48.870;12.542;2022-11-20T03:19:42;4.00;6.70
1476;DHT22;730;48.870;12.542;2022-11-20T03:22:08;4.00;6.50
1476;DHT22;730;48.870;12.542;2022-11-20T03:24:34;4.00;6.60
1476;DHT22;730;48.870;12.542;2022-11-20T03:27:00;4.00;6.60
1476;DHT22;730;48.870;12.542;2022-11-20T03:29:27;4.00;6.60
1476;DHT22;730;48.870;12.542;2022-11-20T03:31:53;4.10;6.50
1476;DHT22;730;48.870;12.542;2022-11-20T03:34:19;4.10;6.30
1476;DHT22;730;48.870;12.542;2022-11-20T03:36:45;4.00;6.30
1476;DHT22;730;48.870;12.542;2022-11-20T03:39:11;4.00;5.90
1476;DHT22;730;48.870;12.542;2022-11-20T03:41:39;4.00;5.80
1476;DHT22;730;48.870;12.542;2022-11-20T03:44:07;4.00;5.50
1476;DHT22;730;48.870;12.542;2022-11-20T03:46:33;4.00;6.00
1476;DHT22;730;48.870;12.542;2022-11-20T03:49:00;3.90;6.00
1476;DHT22;730;48.870;12.542;2022-11-20T03:51:28;3.90;6.50
1476;DHT22;730;48.870;12.542;2022-11-20T03:53:56;3.90;6.80
1476;DHT22;730;48.870;12.542;2022-11-20T03:56:25;3.90;6.90
1476;DHT22;730;48.870;12.542;2022-11-20T03:58:51;4.00;7.00
1476;DHT22;730;48.870;12.542;2022-11-20T04:01:23;4.00;7.00
1476;DHT22;730;48.870;12.542;2022-11-20T04:03:52;4.10;6.90
1476;DHT22;730;48.870;12.542;2022-11-20T04:06:23;4.10;6.80
1476;DHT22;730;48.870;12.542;2022-11-20T04:08:49;4.10;6.60
1476;DHT22;730;48.870;12.542;2022-11-20T04:11:18;4.10;6.40
1476;DHT22;730;48.870;12.542;2022-11-20T04:13:49;4.10;6.40
1476;DHT22;730;48.870;12.542;2022-11-20T04:16:16;4.10;6.40
1476;DHT22;730;48.870;12.542;2022-11-20T04:18:43;4.10;6.40
1476;DHT22;730;48.870;12.542;2022-11-20T04:21:09;4.10;6.30
1476;DHT22;730;48.870;12.542;2022-11-20T04:23:35;4.10;6.20
1476;DHT22;730;48.870;12.542;2022-11-20T04:26:10;4.10;6.20
1476;DHT22;730;48.870;12.542;2022-11-20T04:28:37;4.20;6.30
1476;DHT22;730;48.870;12.542;2022-11-20T04:31:06;4.20;6.30
1476;DHT22;730;48.870;12.542;2022-11-20T04:33:33;4.20;6.20
1476;DHT22;730;48.870;12.542;2022-11-20T04:36:07;4.20;6.30
1476;DHT22;730;48.870;12.542;2022-11-20T04:38:35;4.20;6.30
1476;DHT22;730;48.870;12.542;2022-11-20T04:41:04;4.20;6.10
1476;DHT22;730;48.870;12.542;2022-11-20T04:43:30;4.20;5.90
1476;DHT22;730;48.870;12.542;2022-11-20T04:45:58;4.20;6.00
1476;DHT22;730;48.870;12.542;2022-11-20T04:48:25;4.20;6.10
1476;DHT22;730;48.870;12.542;2022-11-20T04:50:52;4.20;6.20
1476;DHT22;730;48.870;12.542;2022-11-20T04:53:19;4.20;6.20
1476;DHT22;730;48.870;12.542;2022-11-20T04:55:46;4.20;6.10
1476;DHT22;730;48.870;12.542;2022-11-20T04:58:13;4.20;6.30
1476;DHT22;730;48.870;12.542;2022-11-20T05:00:39;4.20;6.40
1476;DHT22;730;48.870;12.542;2022-11-20T05:03:05;4.20;6.40
1476;DHT22;730;48.870;12.542;2022-11-20T05:05:35;4.20;6.40
1476;DHT22;730;48.870;12.542;2022-11-20T05:08:01;4.20;6.40
1476;DHT22;730;48.870;12.542;2022-11-20T05:10:27;4.20;6.50
1476;DHT22;730;48.870;12.542;2022-11-20T05:12:53;4.20;6.50
1476;DHT22;730;48.870;12.542;2022-11-20T05:15:19;4.20;6.60
1476;DHT22;730;48.870;12.542;2022-11-20T05:17:48;4.20;6.60
1476;DHT22;730;48.870;12.542;2022-11-20T05:20:14;4.30;6.80
1476;DHT22;730;48.870;12.542;2022-11-20T05:22:43;4.30;6.80
1476;DHT22;730;48.870;12.542;2022-11-20T05:25:10;4.30;6.70
1476;DHT22;730;48.870;12.542;2022-11-20T05:27:36;4.30;6.70
1476;DHT22;730;48.870;12.542;2022-11-20T05:30:04;4.30;6.80
1476;DHT22;730;48.870;12.542;2022-11-20T05:32:30;4.30;6.70
1476;DHT22;730;48.870;12.542;2022-11-20T05:34:57;4.30;6.70
1476;DHT22;730;48.870;12.542;2022-11-20T05:37:23;4.30;6.70
1476;DHT22;730;48.870;12.542;2022-11-20T05:39:49;4.30;6.50
1476;DHT22;730;48.870;12.542;2022-11-20T05:42:15;4.30;6.50
1476;DHT22;730;48.870;12.542;2022-11-20T05:45:02;4.30;6.40
1476;DHT22;730;48.870;12.542;2022-11-20T05:47:31;4.20;6.20
1476;DHT22;730;48.870;12.542;2022-11-20T05:49:58;4.20;6.40
1476;DHT22;730;48.870;12.542;2022-11-20T05:52:24;4.20;6.40
1476;DHT22;730;48.870;12.542;2022-11-20T05:54:53;4.20;6.60
1476;DHT22;730;48.870;12.542;2022-11-20T05:57:19;4.20;6.70
1476;DHT22;730;48.870;12.542;2022-11-20T05:59:45;4.20;7.50
1476;DHT22;730;48.870;12.542;2022-11-20T06:02:11;4.10;7.20
1476;DHT22;730;48.870;12.542;2022-11-20T06:04:38;4.20;7.30
1476;DHT22;730;48.870;12.542;2022-11-20T06:07:07;4.10;7.30
1476;DHT22;730;48.870;12.542;2022-11-20T06:09:33;4.10;7.70
1476;DHT22;730;48.870;12.542;2022-11-20T06:11:59;4.10;7.90
1476;DHT22;730;48.870;12.542;2022-11-20T06:14:26;4.00;7.80
1476;DHT22;730;48.870;12.542;2022-11-20T06:16:52;4.00;7.90
1476;DHT22;730;48.870;12.542;2022-11-20T06:19:18;4.10;8.20
1476;DHT22;730;48.870;12.542;2022-11-20T06:21:44;4.10;8.30
1476;DHT22;730;48.870;12.542;2022-11-20T06:24:10;4.10;8.40
1476;DHT22;730;48.870;12.542;2022-11-20T06:26:37;4.00;8.40
1476;DHT22;730;48.870;12.542;2022-11-20T06:29:03;4.00;8.50
1476;DHT22;730;48.870;12.542;2022-11-20T06:31:29;4.00;9.10
1476;DHT22;730;48.870;12.542;2022-11-20T06:33:55;4.00;9.30
1476;DHT22;730;48.870;12.542;2022-11-20T06:36:22;4.00;9.40
1476;DHT22;730;48.870;12.542;2022-11-20T06:38:48;4.00;9.50
1476;DHT22;730;48.870;12.542;2022-11-20T06:41:17;3.90;9.70
1476;DHT22;730;48.870;12.542;2022-11-20T06:43:44;3.90;9.80
1476;DHT22;730;48.870;12.542;2022-11-20T06:46:11;3.80;9.80
1476;DHT22;730;48.870;12.542;2022-11-20T06:48:43;3.70;10.80
1476;DHT22;730;48.870;12.542;2022-11-20T06:51:09;3.60;11.70
1476;DHT22;730;48.870;12.542;2022-11-20T06:53:36;3.50;12.50
1476;DHT22;730;48.870;12.542;2022-11-20T06:56:02;3.60;13.00
1476;DHT22;730;48.870;12.542;2022-11-20T06:58:30;3.50;13.70
1476;DHT22;730;48.870;12.542;2022-11-20T07:01:09;3.60;13.80
1476;DHT22;730;48.870;12.542;2022-11-20T07:03:35;3.70;13.80
1476;DHT22;730;48.870;12.542;2022-11-20T07:06:02;3.80;13.40
1476;DHT22;730;48.870;12.542;2022-11-20T07:08:29;3.80;13.00
1476;DHT22;730;48.870;12.542;2022-11-20T07:11:03;3.90;12.80
1476;DHT22;730;48.870;12.542;2022-11-20T07:13:30;4.00;12.60
1476;DHT22;730;48.870;12.542;2022-11-20T07:16:06;4.00;12.40
1476;DHT22;730;48.870;12.542;2022-11-20T07:18:32;4.00;12.20
1476;DHT22;730;48.870;12.542;2022-11-20T07:21:07;4.00;12.20
1476;DHT22;730;48.870;12.542;2022-11-20T07:23:33;4.10;12.20
1476;DHT22;730;48.870;12.542;2022-11-20T07:26:04;4.10;12.40
1476;DHT22;730;48.870;12.542;2022-11-20T07:28:31;4.10;12.30
1476;DHT22;730;48.870;12.542;2022-11-20T07:30:57;4.10;12.50
1476;DHT22;730;48.870;12.542;2022-11-20T07:33:23;4.10;12.50
1476;DHT22;730;48.870;12.542;2022-11-20T07:35:49;4.10;12.60
1476;DHT22;730;48.870;12.542;2022-11-20T07:38:15;4.10;13.10
1476;DHT22;730;48.870;12.542;2022-11-20T07:40:41;4.10;13.00
1476;DHT22;730;48.870;12.542;2022-11-20T07:43:07;4.10;13.10
1476;DHT22;730;48.870;12.542;2022-11-20T07:45:33;4.20;13.10
1476;DHT22;730;48.870;12.542;2022-11-20T07:47:59;4.20;13.00
1476;DHT22;730;48.870;12.542;2022-11-20T07:50:25;4.30;13.10
1476;DHT22;730;48.870;12.542;2022-11-20T07:52:51;4.30;13.10
1476;DHT22;730;48.870;12.542;2022-11-20T07:55:18;4.30;13.00
1476;DHT22;730;48.870;12.542;2022-11-20T07:57:44;4.30;13.00
1476;DHT22;730;48.870;12.542;2022-11-20T08:00:11;4.30;12.90
1476;DHT22;730;48.870;12.542;2022-11-20T08:02:41;4.30;13.10
1476;DHT22;730;48.870;12.542;2022-11-20T08:05:08;4.20;13.40
1476;DHT22;730;48.870;12.542;2022-11-20T08:07:38;4.20;13.70
1476;DHT22;730;48.870;12.542;2022-11-20T08:10:06;4.30;13.80
1476;DHT22;730;48.870;12.542;2022-11-20T08:12:32;4.30;13.90
1476;DHT22;730;48.870;12.542;2022-11-20T08:15:17;4.30;13.90
1476;DHT22;730;48.870;12.542;2022-11-20T08:17:43;4.40;14.20
1476;DHT22;730;48.870;12.542;2022-11-20T08:20:09;4.40;14.30
1476;DHT22;730;48.870;12.542;2022-11-20T08:22:35;4.50;14.50
1476;DHT22;730;48.870;12.542;2022-11-20T08:25:01;4.50;14.40
1476;DHT22;730;48.870;12.542;2022-11-20T08:27:28;4.50;14.60
1476;DHT22;730;48.870;12.542;2022-11-20T08:29:54;4.60;14.50
1476;DHT22;730;48.870;12.542;2022-11-20T08:32:20;4.60;14.40
1476;DHT22;730;48.870;12.542;2022-11-20T08:34:46;4.70;14.10
1476;DHT22;730;48.870;12.542;2022-11-20T08:37:12;4.70;14.20
1476;DHT22;730;48.870;12.542;2022-11-20T08:39:38;4.80;14.10
1476;DHT22;730;48.870;12.542;2022-11-20T08:42:07;4.80;14.00
1476;DHT22;730;48.870;12.542;2022-11-20T08:44:34;4.90;13.80
1476;DHT22;730;48.870;12.542;2022-11-20T08:47:00;4.80;14.00
1476;DHT22;730;48.870;12.542;2022-11-20T08:49:26;4.90;14.20
1476;DHT22;730;48.870;12.542;2022-11-20T08:51:52;4.90;14.00
1476;DHT22;730;48.870;12.542;2022-11-20T08:54:22;4.90;14.00
1476;DHT22;730;48.870;12.542;2022-11-20T08:56:48;5.00;14.20
1476;DHT22;730;48.870;12.542;2022-11-20T08:59:14;5.00;14.00
1476;DHT22;730;48.870;12.542;2022-11-20T09:01:40;5.10;13.80
1476;DHT22;730;48.870;12.542;2022-11-20T09:04:06;5.10;13.80
1476;DHT22;730;48.870;12.542;2022-11-20T09:06:32;5.10;13.60
1476;DHT22;730;48.870;12.542;2022-11-20T09:08:58;5.20;13.60
1476;DHT22;730;48.870;12.542;2022-11-20T09:11:25;5.20;13.30
1476;DHT22;730;48.870;12.542;2022-11-20T09:13:51;5.30;13.40
1476;DHT22;730;48.870;12.542;2022-11-20T09:16:17;5.20;13.60
1476;DHT22;730;48.870;12.542;2022-11-20T09:18:43;5.30;13.60
1476;DHT22;730;48.870;12.542;2022-11-20T09:21:11;5.30;13.50
1476;DHT22;730;48.870;12.542;2022-11-20T09:23:38;5.40;13.40
1476;DHT22;730;48.870;12.542;2022-11-20T09:26:10;5.50;13.00
1476;DHT22;730;48.870;12.542;2022-11-20T09:28:36;5.50;12.90
1476;DHT22;730;48.870;12.542;2022-11-20T09:31:17;5.50;12.30
1476;DHT22;730;48.870;12.542;2022-11-20T09:33:45;5.50;12.70
1476;DHT22;730;48.870;12.542;2022-11-20T09:36:11;5.60;12.80
1476;DHT22;730;48.870;12.542;2022-11-20T09:38:37;5.60;12.70
1476;DHT22;730;48.870;12.542;2022-11-20T09:41:05;5.60;12.70
1476;DHT22;730;48.870;12.542;2022-11-20T09:46:27;5.70;12.60
1476;DHT22;730;48.870;12.542;2022-11-20T09:54:20;5.90;13.10
1476;DHT22;730;48.870;12.542;2022-11-20T09:56:52;5.90;12.90
1476;DHT22;730;48.870;12.542;2022-11-20T09:59:46;6.00;12.70
1476;DHT22;730;48.870;12.542;2022-11-20T10:02:48;6.00;12.50
1476;DHT22;730;48.870;12.542;2022-11-20T10:05:40;6.10;12.30
1476;DHT22;730;48.870;12.542;2022-11-20T10:08:20;6.10;12.30
1476;DHT22;730;48.870;12.542;2022-11-20T10:10:54;6.10;12.40
1476;DHT22;730;48.870;12.542;2022-11-20T10:13:48;6.20;12.10
1476;DHT22;730;48.870;12.542;2022-11-20T10:21:59;6.20;11.50
1476;DHT22;730;48.870;12.542;2022-11-20T10:25:39;6.20;11.80
1476;DHT22;730;48.870;12.542;2022-11-20T10:30:20;6.40;11.70
1476;DHT22;730;48.870;12.542;2022-11-20T10:32:59;6.40;12.20
1476;DHT22;730;48.870;12.542;2022-11-20T10:35:35;6.40;12.50
1476;DHT22;730;48.870;12.542;2022-11-20T10:38:12;6.50;12.60
1476;DHT22;730;48.870;12.542;2022-11-20T10:40:57;6.50;12.10
1476;DHT22;730;48.870;12.542;2022-11-20T10:43:46;6.50;11.70
1476;DHT22;730;48.870;12.542;2022-11-20T10:46:16;6.60;11.90
1476;DHT22;730;48.870;12.542;2022-11-20T10:48:44;6.60;11.80
1476;DHT22;730;48.870;12.542;2022-11-20T10:51:35;6.60;11.30
1476;DHT22;730;48.870;12.542;2022-11-20T10:54:24;6.60;11.00
1476;DHT22;730;48.870;12.542;2022-11-20T10:57:05;6.60;10.70
1476;DHT22;730;48.870;12.542;2022-11-20T11:00:05;6.60;10.30
1476;DHT22;730;48.870;12.542;2022-11-20T11:02:41;6.60;10.10
1476;DHT22;730;48.870;12.542;2022-11-20T11:07:54;6.60;10.20
1476;DHT22;730;48.870;12.542;2022-11-20T11:10:49;6.60;10.30
1476;DHT22;730;48.870;12.542;2022-11-20T11:13:27;6.60;10.20
1476;DHT22;730;48.870;12.542;2022-11-20T11:15:54;6.60;10.30
1476;DHT22;730;48.870;12.542;2022-11-20T11:18:27;6.60;10.20
1476;DHT22;730;48.870;12.542;2022-11-20T11:20:54;6.60;10.00
1476;DHT22;730;48.870;12.542;2022-11-20T11:23:40;6.60;10.00
1476;DHT22;730;48.870;12.542;2022-11-20T11:26:19;6.60;9.90
1476;DHT22;730;48.870;12.542;2022-11-20T11:29:00;6.60;9.90
1476;DHT22;730;48.870;12.542;2022-11-20T11:31:34;6.60;9.70
1476;DHT22;730;48.870;12.542;2022-11-20T11:34:11;6.60;9.60
1476;DHT22;730;48.870;12.542;2022-11-20T11:36:37;6.60;9.70
1476;DHT22;730;48.870;12.542;2022-11-20T11:39:08;6.70;9.90
1476;DHT22;730;48.870;12.542;2022-11-20T11:41:37;6.70;9.90
1476;DHT22;730;48.870;12.542;2022-11-20T11:44:19;6.70;9.80
1476;DHT22;730;48.870;12.542;2022-11-20T11:47:18;6.70;9.80
1476;DHT22;730;48.870;12.542;2022-11-20T11:49:45;6.80;9.70
1476;DHT22;730;48.870;12.542;2022-11-20T11:52:20;6.90;9.70
1476;DHT22;730;48.870;12.542;2022-11-20T11:54:56;6.90;9.80
1476;DHT22;730;48.870;12.542;2022-11-20T12:00:09;6.90;9.70
1476;DHT22;730;48.870;12.542;2022-11-20T12:07:59;7.00;10.00
1476;DHT22;730;48.870;12.542;2022-11-20T12:13:26;7.10;10.30
1476;DHT22;730;48.870;12.542;2022-11-20T12:15:56;7.10;10.40
1476;DHT22;730;48.870;12.542;2022-11-20T12:18:23;7.10;10.40
1476;DHT22;730;48.870;12.542;2022-11-20T12:27:38;7.20;9.60
1476;DHT22;730;48.870;12.542;2022-11-20T12:32:34;7.10;8.70
1476;DHT22;730;48.870;12.542;2022-11-20T12:40:27;7.10;7.30
1476;DHT22;730;48.870;12.542;2022-11-20T12:43:23;7.10;8.00
1476;DHT22;730;48.870;12.542;2022-11-20T12:57:16;7.30;7.50
1476;DHT22;730;48.870;12.542;2022-11-20T13:00:02;7.20;7.30
1476;DHT22;730;48.870;12.542;2022-11-20T13:07:54;7.30;7.50
1476;DHT22;730;48.870;12.542;2022-11-20T13:16:00;7.40;5.70
1476;DHT22;730;48.870;12.542;2022-11-20T13:18:29;7.40;6.20
1476;DHT22;730;48.870;12.542;2022-11-20T13:20:56;7.50;6.40
1476;DHT22;730;48.870;12.542;2022-11-20T13:23:24;7.50;5.10
1476;DHT22;730;48.870;12.542;2022-11-20T13:26:02;7.50;5.40
1476;DHT22;730;48.870;12.542;2022-11-20T13:28:30;7.50;5.50
1476;DHT22;730;48.870;12.542;2022-11-20T13:30:58;7.50;5.30
1476;DHT22;730;48.870;12.542;2022-11-20T13:33:36;7.40;5.60
1476;DHT22;730;48.870;12.542;2022-11-20T13:36:07;7.40;5.70
1476;DHT22;730;48.870;12.542;2022-11-20T13:38:50;7.50;6.00
1476;DHT22;730;48.870;12.542;2022-11-20T13:41:35;7.50;4.80
1476;DHT22;730;48.870;12.542;2022-11-20T13:46:38;7.50;6.00
1476;DHT22;730;48.870;12.542;2022-11-20T13:49:09;7.50;5.40
1476;DHT22;730;48.870;12.542;2022-11-20T13:51:51;7.50;5.70
1476;DHT22;730;48.870;12.542;2022-11-20T13:54:39;7.50;5.70
1476;DHT22;730;48.870;12.542;2022-11-20T14:00:23;7.60;4.90
1476;DHT22;730;48.870;12.542;2022-11-20T14:05:39;7.60;4.10
1476;DHT22;730;48.870;12.542;2022-11-20T14:08:14;7.60;4.20
1476;DHT22;730;48.870;12.542;2022-11-20T14:10:43;7.60;3.90
1476;DHT22;730;48.870;12.542;2022-11-20T14:13:19;7.60;4.10
1476;DHT22;730;48.870;12.542;2022-11-20T14:15:46;7.60;4.50
1476;DHT22;730;48.870;12.542;2022-11-20T14:18:18;7.70;4.70
1476;DHT22;730;48.870;12.542;2022-11-20T14:20:45;7.70;4.40
1476;DHT22;730;48.870;12.542;2022-11-20T14:23:12;7.70;4.50
1476;DHT22;730;48.870;12.542;2022-11-20T14:25:42;7.70;4.30
1476;DHT22;730;48.870;12.542;2022-11-20T14:28:26;7.70;4.00
1476;DHT22;730;48.870;12.542;2022-11-20T14:30:53;7.60;3.80
1476;DHT22;730;48.870;12.542;2022-11-20T14:33:21;7.60;4.00
1476;DHT22;730;48.870;12.542;2022-11-20T14:35:53;7.70;4.40
1476;DHT22;730;48.870;12.542;2022-11-20T14:38:26;7.70;4.50
1476;DHT22;730;48.870;12.542;2022-11-20T14:40:52;7.70;4.00
1476;DHT22;730;48.870;12.542;2022-11-20T14:43:27;7.70;4.00
1476;DHT22;730;48.870;12.542;2022-11-20T14:46:05;7.80;4.20
1476;DHT22;730;48.870;12.542;2022-11-20T14:48:49;7.70;4.30
1476;DHT22;730;48.870;12.542;2022-11-20T14:51:29;7.80;4.40
1476;DHT22;730;48.870;12.542;2022-11-20T14:53:56;7.70;4.30
1476;DHT22;730;48.870;12.542;2022-11-20T14:56:33;7.70;4.30
1476;DHT22;730;48.870;12.542;2022-11-20T14:58:59;7.70;4.10
1476;DHT22;730;48.870;12.542;2022-11-20T15:01:27;7.70;4.30
1476;DHT22;730;48.870;12.542;2022-11-20T15:04:11;7.70;4.40
1476;DHT22;730;48.870;12.542;2022-11-20T15:06:37;7.70;5.20
1476;DHT22;730;48.870;12.542;2022-11-20T15:09:15;7.70;5.00
1476;DHT22;730;48.870;12.542;2022-11-20T15:11:55;7.70;4.10
1476;DHT22;730;48.870;12.542;2022-11-20T15:14:23;7.70;3.60
1476;DHT22;730;48.870;12.542;2022-11-20T15:16:50;7.70;3.60
1476;DHT22;730;48.870;12.542;2022-11-20T15:19:20;7.70;3.30
1476;DHT22;730;48.870;12.542;2022-11-20T15:21:47;7.60;3.30
1476;DHT22;730;48.870;12.542;2022-11-20T15:24:14;7.60;3.60
1476;DHT22;730;48.870;12.542;2022-11-20T15:26:41;7.60;3.60
1476;DHT22;730;48.870;12.542;2022-11-20T15:29:09;7.60;3.70
1476;DHT22;730;48.870;12.542;2022-11-20T15:31:37;7.60;3.80
1476;DHT22;730;48.870;12.542;2022-11-20T15:34:05;7.50;3.90
1476;DHT22;730;48.870;12.542;2022-11-20T15:36:33;7.50;3.90
1476;DHT22;730;48.870;12.542;2022-11-20T15:38:59;7.40;3.80
1476;DHT22;730;48.870;12.542;2022-11-20T15:41:25;7.40;4.00
1476;DHT22;730;48.870;12.542;2022-11-20T15:43:51;7.40;4.30
1476;DHT22;730;48.870;12.542;2022-11-20T15:46:25;7.40;4.50
1476;DHT22;730;48.870;12.542;2022-11-20T15:48:54;7.40;4.40
1476;DHT22;730;48.870;12.542;2022-11-20T15:51:27;7.40;4.30
1476;DHT22;730;48.870;12.542;2022-11-20T15:53:55;7.40;4.30
1476;DHT22;730;48.870;12.542;2022-11-20T15:56:21;7.40;4.10
1476;DHT22;730;48.870;12.542;2022-11-20T15:58:48;7.30;4.00
1476;DHT22;730;48.870;12.542;2022-11-20T16:01:17;7.30;4.30
1476;DHT22;730;48.870;12.542;2022-11-20T16:03:44;7.30;4.60
1476;DHT22;730;48.870;12.542;2022-11-20T16:06:10;7.30;4.80
1476;DHT22;730;48.870;12.542;2022-11-20T16:08:36;7.30;5.10
1476;DHT22;730;48.870;12.542;2022-11-20T16:11:03;7.30;4.70
1476;DHT22;730;48.870;12.542;2022-11-20T16:13:31;7.30;5.30
1476;DHT22;730;48.870;12.542;2022-11-20T16:16:25;7.30;4.80
1476;DHT22;730;48.870;12.542;2022-11-20T16:18:54;7.30;3.90
1476;DHT22;730;48.870;12.542;2022-11-20T16:21:20;7.30;4.00
1476;DHT22;730;48.870;12.542;2022-11-20T16:23:46;7.30;3.80
1476;DHT22;730;48.870;12.542;2022-11-20T16:26:16;7.30;3.50
1476;DHT22;730;48.870;12.542;2022-11-20T16:28:43;7.30;3.80
1476;DHT22;730;48.870;12.542;2022-11-20T16:31:11;7.20;3.70
1476;DHT22;730;48.870;12.542;2022-11-20T16:33:37;7.30;3.70
1476;DHT22;730;48.870;12.542;2022-11-20T16:36:08;7.30;3.20
1476;DHT22;730;48.870;12.542;2022-11-20T16:38:35;7.30;3.40
1476;DHT22;730;48.870;12.542;2022-11-20T16:41:02;7.20;3.00
1476;DHT22;730;48.870;12.542;2022-11-20T16:43:28;7.20;3.10
1476;DHT22;730;48.870;12.542;2022-11-20T16:45:54;7.20;2.60
1476;DHT22;730;48.870;12.542;2022-11-20T16:48:20;7.10;2.60
1476;DHT22;730;48.870;12.542;2022-11-20T16:50:49;7.20;2.70
1476;DHT22;730;48.870;12.542;2022-11-20T16:53:18;7.10;2.60
1476;DHT22;730;48.870;12.542;2022-11-20T16:55:44;7.10;3.10
1476;DHT22;730;48.870;12.542;2022-11-20T16:58:11;7.00;3.10
1476;DHT22;730;48.870;12.542;2022-11-20T17:00:38;7.00;2.90
1476;DHT22;730;48.870;12.542;2022-11-20T17:03:05;7.00;3.00
1476;DHT22;730;48.870;12.542;2022-11-20T17:05:32;7.00;3.20
1476;DHT22;730;48.870;12.542;2022-11-20T17:07:59;7.00;3.50
1476;DHT22;730;48.870;12.542;2022-11-20T17:10:26;7.00;2.90
1476;DHT22;730;48.870;12.542;2022-11-20T17:12:52;6.90;3.30
1476;DHT22;730;48.870;12.542;2022-11-20T17:15:18;6.90;3.30
1476;DHT22;730;48.870;12.542;2022-11-20T17:17:44;7.00;3.10
1476;DHT22;730;48.870;12.542;2022-11-20T17:20:11;7.00;2.80
1476;DHT22;730;48.870;12.542;2022-11-20T17:22:37;7.00;2.60
1476;DHT22;730;48.870;12.542;2022-11-20T17:25:03;7.00;2.60
1476;DHT22;730;48.870;12.542;2022-11-20T17:27:33;7.00;2.80
1476;DHT22;730;48.870;12.542;2022-11-20T17:30:01;7.00;3.00
1476;DHT22;730;48.870;12.542;2022-11-20T17:32:27;7.00;3.30
1476;DHT22;730;48.870;12.542;2022-11-20T17:34:53;7.00;3.60
1476;DHT22;730;48.870;12.542;2022-11-20T17:37:20;7.00;3.70
1476;DHT22;730;48.870;12.542;2022-11-20T17:39:46;7.00;3.50
1476;DHT22;730;48.870;12.542;2022-11-20T17:42:13;7.10;3.20
1476;DHT22;730;48.870;12.542;2022-11-20T17:44:51;7.10;2.80
1476;DHT22;730;48.870;12.542;2022-11-20T17:47:17;7.10;2.00
1476;DHT22;730;48.870;12.542;2022-11-20T17:49:43;7.00;1.50
1476;DHT22;730;48.870;12.542;2022-11-20T17:52:09;7.00;1.10
1476;DHT22;730;48.870;12.542;2022-11-20T17:54:35;7.00;1.00
1476;DHT22;730;48.870;12.542;2022-11-20T17:57:01;6.90;1.00
1476;DHT22;730;48.870;12.542;2022-11-20T17:59:46;6.90;1.00
1476;DHT22;730;48.870;12.542;2022-11-20T18:02:12;6.90;1.00
1476;DHT22;730;48.870;12.542;2022-11-20T18:04:38;6.80;1.00
1476;DHT22;730;48.870;12.542;2022-11-20T18:07:05;6.80;1.00